Terminal Aerodrome Forecast
Issued by NWS Wilmington, OH

Home | Current Version | Previous Version | Text Only | Print | Product List | Glossary On
Versions: 1 2 3 4 5 6 7 8 9 10 11 12 13 14 15 16 17 18 19 20 21 22 23 24 25 26 27 28 29 30 31 32
000
FTUS41 KILN 221700
TAFCVG
TAF
KCVG 221738Z 2218/2324 25008KT P6SM SCT070 BKN250
     FM230100 30005KT P6SM BKN250
     FM230800 VRB02KT 4SM BR SCT060 BKN250
     FM231400 08005KT P6SM SCT050=

USA.gov is the U.S. government's official web portal to all federal, state and local government web resources and services.